Time;durP1;ratioP1;P1;durP2;ratioP2;P2;SDS_P1;SDS_P2;PMS_P1;PMS_P2;Temp;Humidity;BMP_temperature;BMP_pressure;BME280_temperature;BME280_humidity;BME280_pressure;Samples;Min_cycle;Max_cycle;Signal;HPM_P1;HPM_P2
2022/02/02 00:01:16;;;;;;;3.55;2.70;;;;;;;0.21;88.46;96856.22;1832190;77;21099;-65
2022/02/02 00:03:48;;;;;;;3.75;3.05;;;;;;;0.21;88.42;96851.08;1802834;78;21020;-65
2022/02/02 00:06:37;;;;;;;4.78;3.55;;;;;;;0.24;88.55;96855.69;1801919;78;21509;-65
2022/02/02 00:09:00;;;;;;;3.42;2.77;;;;;;;0.26;88.55;96861.58;1804626;78;20922;-65
2022/02/02 00:16:44;;;;;;;4.33;3.20;;;;;;;0.26;88.52;96864.97;1802704;78;20874;-65
2022/02/02 00:18:58;;;;;;;4.37;3.42;;;;;;;0.27;88.52;96864.05;1804216;78;21475;-65
2022/02/02 00:21:30;;;;;;;5.08;3.83;;;;;;;0.27;88.57;96864.52;1800695;78;21499;-65
2022/02/02 00:23:55;;;;;;;4.40;3.60;;;;;;;0.30;88.65;96870.77;1797906;78;21200;-65
2022/02/02 00:26:25;;;;;;;5.42;3.17;;;;;;;0.32;88.74;96867.22;1802948;78;21448;-65
2022/02/02 00:28:52;;;;;;;3.65;3.20;;;;;;;0.37;88.84;96869.55;1785356;78;21028;-65
2022/02/02 00:31:22;;;;;;;6.00;3.40;;;;;;;0.38;88.76;96867.35;1800713;78;20941;-65
2022/02/02 00:33:49;;;;;;;4.05;3.40;;;;;;;0.37;88.66;96866.98;1795473;78;21001;-65
2022/02/02 00:36:18;;;;;;;4.90;3.47;;;;;;;0.37;88.78;96861.86;1802465;78;21088;-65
2022/02/02 00:38:44;;;;;;;7.58;4.12;;;;;;;0.40;88.96;96865.09;1785320;78;21623;-65
2022/02/02 00:41:15;;;;;;;5.50;3.77;;;;;;;0.47;89.16;96866.86;1814083;78;21021;-65
2022/02/02 00:43:45;;;;;;;5.37;3.60;;;;;;;0.54;89.22;96872.06;1806448;78;20989;-65
2022/02/02 00:46:11;;;;;;;4.90;3.70;;;;;;;0.61;89.31;96878.52;1818203;78;21826;-65
2022/02/02 00:48:37;;;;;;;5.47;3.62;;;;;;;0.62;89.13;96876.34;1801873;78;21407;-65
2022/02/02 00:51:07;;;;;;;4.80;3.72;;;;;;;0.60;88.91;96882.02;1793353;78;21040;-65
2022/02/02 00:53:33;;;;;;;6.67;4.30;;;;;;;0.55;88.68;96887.01;1801626;78;20927;-65
2022/02/02 00:56:00;;;;;;;4.78;4.05;;;;;;;0.59;89.04;96882.11;1799596;78;20903;-65
2022/02/02 00:58:27;;;;;;;6.72;4.60;;;;;;;0.66;89.15;96877.00;1739915;80;21764;-65
2022/02/02 01:00:54;;;;;;;4.70;3.60;;;;;;;0.71;89.17;96889.61;1755301;81;21420;-65
2022/02/02 01:03:21;;;;;;;3.98;3.58;;;;;;;0.68;88.94;96882.90;1769495;80;20899;-65
2022/02/02 01:05:48;;;;;;;5.12;3.92;;;;;;;0.64;88.79;96883.52;1779838;79;21049;-65
2022/02/02 01:08:40;;;;;;;5.03;3.90;;;;;;;0.56;88.69;96880.53;1777841;80;21056;-65
2022/02/02 01:10:57;;;;;;;4.92;3.55;;;;;;;0.52;88.70;96879.02;1778757;79;21034;-65
2022/02/02 01:20:56;;;;;;;4.57;3.80;;;;;;;0.35;88.72;96885.48;1791601;79;20989;-64
2022/02/02 01:28:43;;;;;;;4.40;4.00;;;;;;;0.40;89.13;96889.93;1774965;80;21551;-66
2022/02/02 01:31:15;;;;;;;8.25;4.05;;;;;;;0.37;88.83;96896.51;1782845;78;21028;-64
2022/02/02 01:33:42;;;;;;;4.80;3.95;;;;;;;0.33;88.82;96902.69;1770163;80;21009;-65
2022/02/02 01:36:09;;;;;;;4.70;3.87;;;;;;;0.28;88.88;96904.66;1788179;79;20945;-65
2022/02/02 01:38:37;;;;;;;5.37;4.58;;;;;;;0.26;88.96;96907.78;1769553;79;21432;-65
2022/02/02 01:41:09;;;;;;;5.45;4.85;;;;;;;0.19;88.98;96913.19;1779407;80;20919;-65
2022/02/02 01:43:37;;;;;;;7.90;5.15;;;;;;;0.18;89.10;96903.84;1784128;79;20931;-65
2022/02/02 01:46:05;;;;;;;5.17;4.60;;;;;;;0.13;89.08;96908.38;1773627;79;21534;-64
2022/02/02 01:51:11;;;;;;;7.67;5.50;;;;;;;0.09;89.24;96915.86;1766975;80;21137;-65
2022/02/02 01:53:44;;;;;;;8.05;6.15;;;;;;;0.06;89.23;96916.02;1794365;78;21036;-65
2022/02/02 01:56:03;;;;;;;7.67;6.37;;;;;;;0.01;89.28;96926.13;1766522;80;20994;-65
2022/02/02 02:01:18;;;;;;;8.53;7.07;;;;;;;-0.07;89.40;96918.81;1783954;79;21724;-65
2022/02/02 02:03:47;;;;;;;10.72;7.72;;;;;;;-0.10;89.44;96924.09;1783530;79;21166;-65
2022/02/02 02:06:14;;;;;;;9.23;8.13;;;;;;;-0.10;89.57;96921.53;1794390;78;21139;-65
2022/02/02 02:08:42;;;;;;;9.00;7.53;;;;;;;-0.10;89.59;96926.66;1800191;78;21534;-65
2022/02/02 02:11:15;;;;;;;9.80;7.25;;;;;;;-0.10;89.66;96927.94;1790802;77;21530;-65
2022/02/02 02:16:20;;;;;;;7.78;6.78;;;;;;;-0.15;89.60;96937.13;1654271;85;22019;-65
2022/02/02 02:18:46;;;;;;;8.60;7.33;;;;;;;-0.15;89.65;96940.16;1633623;86;21614;-65
2022/02/02 02:21:16;;;;;;;12.93;7.30;;;;;;;-0.19;89.64;96942.50;1689416;83;21036;-65
2022/02/02 02:23:44;;;;;;;10.98;8.08;;;;;;;-0.21;89.69;96944.30;1698020;83;21056;-65
2022/02/02 02:26:20;;;;;;;8.45;6.78;;;;;;;-0.19;89.83;96948.91;1693764;83;21045;-64
2022/02/02 02:28:54;;;;;;;7.75;6.25;;;;;;;-0.21;89.90;96941.73;1674277;84;22198;-64
2022/02/02 02:31:25;;;;;;;6.87;5.87;;;;;;;-0.29;89.99;96947.23;1682120;83;21266;-64
2022/02/02 02:34:10;;;;;;;7.45;6.65;;;;;;;-0.31;89.89;96952.45;1680219;83;21149;-65
2022/02/02 02:55:53;;;;;;;9.08;6.65;;;;;;;-0.43;90.47;96965.83;1709507;81;21980;-65
2022/02/02 03:01:25;;;;;;;10.72;7.45;;;;;;;-0.46;90.67;96980.07;1723806;82;20993;-64
2022/02/02 03:31:18;;;;;;;21.40;14.68;;;;;;;-0.59;91.34;97025.94;1753947;80;20958;-64
2022/02/02 03:53:38;;;;;;;12.40;9.38;;;;;;;-0.83;92.70;97070.16;1750562;80;20918;-64
2022/02/02 03:58:28;;;;;;;11.38;7.67;;;;;;;-0.86;92.71;97083.11;1741439;81;20960;-64
2022/02/02 04:03:39;;;;;;;11.73;7.05;;;;;;;-0.86;92.98;97098.47;1771008;79;21149;-66
2022/02/02 04:06:04;;;;;;;9.80;7.35;;;;;;;-0.87;92.96;97098.07;1780917;78;20982;-65
2022/02/02 04:08:32;;;;;;;10.72;7.85;;;;;;;-0.88;92.70;97100.27;1787616;78;21613;-65
2022/02/02 04:10:59;;;;;;;10.08;7.62;;;;;;;-0.87;92.57;97109.59;1781679;80;21083;-65
2022/02/02 04:14:21;;;;;;;8.33;6.37;;;;;;;-0.87;92.65;97109.59;1793203;78;20907;-65
2022/02/02 04:38:40;;;;;;;12.10;8.80;;;;;;;-0.83;93.62;97162.39;1677683;85;20930;-65
2022/02/02 04:51:55;;;;;;;15.08;11.30;;;;;;;-0.80;93.81;97185.31;1669492;85;21479;-64
2022/02/02 05:07:32;;;;;;;13.03;9.88;;;;;;;-0.72;94.34;97221.70;1675880;84;21606;-65
2022/02/02 05:10:09;;;;;;;11.78;8.90;;;;;;;-0.71;94.40;97228.48;1685542;84;21298;-64
2022/02/02 05:21:09;;;;;;;10.88;8.58;;;;;;;-0.68;94.74;97247.56;1670629;84;21020;-65
2022/02/02 05:50:33;;;;;;;13.05;10.18;;;;;;;-0.50;94.62;97309.23;1687468;82;22437;-64
2022/02/02 05:52:45;;;;;;;13.70;10.82;;;;;;;-0.50;94.51;97313.08;1669601;83;21594;-64
2022/02/02 05:55:14;;;;;;;14.40;10.13;;;;;;;-0.49;94.48;97324.99;1670742;83;21606;-66
2022/02/02 05:57:45;;;;;;;12.43;10.25;;;;;;;-0.49;94.52;97327.55;1675455;83;21152;-65
2022/02/02 06:00:13;;;;;;;11.68;9.90;;;;;;;-0.47;94.46;97333.45;1673992;83;21022;-65
2022/02/02 06:02:42;;;;;;;10.25;9.03;;;;;;;-0.48;94.30;97352.28;1678079;82;21089;-66
2022/02/02 06:05:10;;;;;;;14.03;10.93;;;;;;;-0.46;94.28;97347.93;1678781;82;21092;-66
2022/02/02 06:07:41;;;;;;;13.60;11.45;;;;;;;-0.42;94.35;97356.33;1671192;82;21041;-66
2022/02/02 06:10:14;;;;;;;12.23;10.88;;;;;;;-0.42;94.25;97355.91;1670401;83;20963;-64
2022/02/02 06:12:42;;;;;;;12.43;11.00;;;;;;;-0.41;94.17;97365.70;1671777;82;21104;-66
2022/02/02 06:15:13;;;;;;;14.35;11.78;;;;;;;-0.43;94.22;97373.44;1659707;84;21151;-65
2022/02/02 06:17:48;;;;;;;13.53;10.35;;;;;;;-0.44;94.41;97376.91;1677889;82;21018;-64
2022/02/02 06:20:13;;;;;;;16.27;10.95;;;;;;;-0.48;94.59;97382.62;1681094;83;21025;-64
2022/02/02 06:23:01;;;;;;;13.83;10.58;;;;;;;-0.48;94.52;97381.77;1700794;83;21559;-64
2022/02/02 06:25:32;;;;;;;11.60;9.10;;;;;;;-0.48;94.47;97385.61;1690696;83;21606;-65
2022/02/02 06:28:03;;;;;;;11.85;8.90;;;;;;;-0.51;95.10;97390.86;1689607;82;22535;-65
2022/02/02 06:30:32;;;;;;;9.98;8.23;;;;;;;-0.53;94.62;97392.67;1690917;82;21587;-65
2022/02/02 06:33:08;;;;;;;10.65;8.43;;;;;;;-0.53;94.77;97395.23;1695972;84;21017;-65
2022/02/02 06:35:36;;;;;;;9.70;7.85;;;;;;;-0.54;94.97;97404.63;1689221;82;21014;-65
2022/02/02 06:38:04;;;;;;;11.03;8.80;;;;;;;-0.53;94.83;97408.88;1699594;82;21038;-65
2022/02/02 06:40:33;;;;;;;10.18;8.05;;;;;;;-0.54;94.99;97420.46;1691781;82;21598;-65
2022/02/02 06:43:03;;;;;;;10.38;8.03;;;;;;;-0.53;94.90;97431.95;1688953;82;20938;-65
2022/02/02 06:45:30;;;;;;;9.50;7.50;;;;;;;-0.53;95.11;97425.55;1696082;82;20947;-65
2022/02/02 06:47:56;;;;;;;9.20;7.20;;;;;;;-0.52;95.02;97437.45;1694656;82;21002;-65
2022/02/02 06:50:33;;;;;;;8.08;6.60;;;;;;;-0.51;95.29;97439.56;1704519;82;21595;-64
2022/02/02 06:53:19;;;;;;;7.90;6.08;;;;;;;-0.50;95.16;97448.95;1687534;82;21098;-63
2022/02/02 06:56:16;;;;;;;9.40;6.10;;;;;;;-0.50;95.12;97448.95;1686376;84;20986;-65
2022/02/02 07:01:48;;;;;;;8.30;6.33;;;;;;;-0.49;95.24;97467.27;1685705;84;21335;-64
2022/02/02 07:04:28;;;;;;;7.30;6.55;;;;;;;-0.47;95.63;97466.77;1657614;84;21570;-65
2022/02/02 07:07:01;;;;;;;7.55;6.47;;;;;;;-0.46;95.69;97478.67;1687844;83;21997;-64
2022/02/02 07:09:45;;;;;;;8.55;6.78;;;;;;;-0.46;95.71;97479.51;1664195;82;21068;-64
2022/02/02 07:12:18;;;;;;;13.40;6.95;;;;;;;-0.45;95.48;97482.90;1635090;85;21097;-64
2022/02/02 07:17:33;;;;;;;10.03;8.13;;;;;;;-0.43;95.31;97500.34;1691435;83;21057;-65
2022/02/02 07:22:50;;;;;;;11.53;9.30;;;;;;;-0.43;95.77;97520.86;1652829;84;20970;-63
2022/02/02 07:25:21;;;;;;;10.05;8.58;;;;;;;-0.42;95.36;97523.83;1662737;85;21001;-63
2022/02/02 07:27:40;;;;;;;10.98;7.97;;;;;;;-0.42;95.51;97528.09;1668813;84;20935;-63
2022/02/02 07:32:43;;;;;;;9.10;7.30;;;;;;;-0.38;95.42;97530.95;1676749;82;21061;-64
2022/02/02 07:37:48;;;;;;;8.53;6.83;;;;;;;-0.31;95.99;97538.78;1679204;83;21011;-64
2022/02/02 07:40:16;;;;;;;9.45;7.00;;;;;;;-0.30;95.68;97540.02;1688502;83;21610;-65
2022/02/02 07:42:47;;;;;;;8.28;6.58;;;;;;;-0.30;95.83;97546.43;1692235;84;20959;-65
2022/02/02 07:45:17;;;;;;;5.78;5.10;;;;;;;-0.29;95.76;97558.34;1686266;83;21215;-64
2022/02/02 07:48:07;;;;;;;6.47;5.70;;;;;;;-0.28;95.85;97562.59;1686194;83;21009;-64
2022/02/02 07:50:35;;;;;;;8.20;5.67;;;;;;;-0.28;95.66;97569.44;1690900;83;21013;-64
2022/02/02 07:53:10;;;;;;;8.48;6.20;;;;;;;-0.29;96.07;97580.59;1686404;83;20999;-64
2022/02/02 07:55:38;;;;;;;9.35;7.15;;;;;;;-0.30;95.83;97582.33;1683715;83;21051;-64
2022/02/02 07:58:06;;;;;;;9.80;6.67;;;;;;;-0.26;95.87;97585.16;1690987;83;21157;-64
2022/02/02 08:00:35;;;;;;;7.22;5.78;;;;;;;-0.27;95.79;97586.05;1679474;83;20970;-64
2022/02/02 08:03:13;;;;;;;9.78;7.05;;;;;;;-0.26;95.94;97596.69;1673449;83;21504;-64
2022/02/02 08:05:44;;;;;;;;;;;;;;;-0.21;96.10;97611.09;1668250;83;21053;-65
2022/02/02 08:10:47;;;;;;;8.00;6.72;;;;;;;-0.20;95.98;97630.70;1685753;83;21380;-64
2022/02/02 08:13:22;;;;;;;7.62;6.25;;;;;;;-0.18;95.87;97634.05;1692029;83;21033;-65
2022/02/02 08:15:43;;;;;;;8.13;5.33;;;;;;;-0.21;96.11;97635.00;1689809;83;20975;-65
2022/02/02 08:18:10;;;;;;;6.53;5.15;;;;;;;-0.17;96.54;97635.72;1689002;84;21009;-65
2022/02/02 08:20:37;;;;;;;9.37;6.00;;;;;;;-0.17;96.43;97651.11;1687462;84;20990;-65
2022/02/02 08:23:03;;;;;;;7.90;5.72;;;;;;;-0.09;96.32;97649.09;1691806;83;21422;-65
2022/02/02 08:25:32;;;;;;;6.47;4.97;;;;;;;-0.02;96.15;97663.38;1687611;83;20951;-64
2022/02/02 08:28:05;;;;;;;7.58;5.40;;;;;;;0.03;95.98;97667.89;1693304;83;21053;-64
2022/02/02 08:30:33;;;;;;;6.12;4.72;;;;;;;0.11;95.91;97672.30;1688754;83;21025;-64
2022/02/02 08:33:03;;;;;;;6.78;5.15;;;;;;;0.19;95.97;97674.09;1659057;85;21030;-64
2022/02/02 08:35:34;;;;;;;6.72;5.50;;;;;;;0.23;95.80;97690.69;1689290;83;21855;-65
2022/02/02 08:40:56;;;;;;;6.70;4.50;;;;;;;0.25;95.92;97699.14;1677655;84;20987;-66
2022/02/02 08:43:26;;;;;;;6.10;4.40;;;;;;;0.20;95.86;97707.03;1674714;84;20991;-65
2022/02/02 08:45:49;;;;;;;7.08;4.30;;;;;;;0.18;95.89;97707.08;1671232;84;21010;-65
2022/02/02 08:48:24;;;;;;;6.70;3.77;;;;;;;0.17;95.98;97715.68;1678775;83;22015;-65
2022/02/02 08:56:31;;;;;;;4.17;3.12;;;;;;;0.20;95.87;97730.97;1648077;86;21101;-64
2022/02/02 08:58:45;;;;;;;6.33;3.30;;;;;;;0.18;95.76;97743.01;1671156;84;21082;-65
2022/02/02 09:01:25;;;;;;;8.65;3.70;;;;;;;0.14;95.88;97742.75;1681528;84;22015;-65
2022/02/02 09:06:35;;;;;;;3.70;2.90;;;;;;;0.19;96.20;97756.67;1675838;84;21043;-65
2022/02/02 09:09:23;;;;;;;3.87;2.67;;;;;;;0.19;95.98;97771.62;1643171;86;21509;-65
2022/02/02 09:20:14;;;;;;;6.42;3.80;;;;;;;0.49;96.03;97792.38;1650401;84;21011;-64
2022/02/02 09:25:23;;;;;;;4.45;2.67;;;;;;;0.64;95.18;97804.20;1653841;85;21069;-65
2022/02/02 09:33:52;;;;;;;4.47;2.67;;;;;;;0.43;94.87;97822.97;1662091;85;20986;-65
2022/02/02 09:36:00;;;;;;;4.33;2.00;;;;;;;0.38;95.01;97826.98;1666091;84;20974;-65
2022/02/02 09:38:27;;;;;;;5.67;2.47;;;;;;;0.47;95.24;97827.54;1686354;84;20975;-65
2022/02/02 09:43:51;;;;;;;4.28;2.50;;;;;;;0.66;95.34;97830.65;1604305;87;21704;-65
2022/02/02 09:46:20;;;;;;;6.62;2.65;;;;;;;0.76;94.99;97838.03;1604598;87;21215;-65
2022/02/02 09:48:49;;;;;;;5.87;2.85;;;;;;;0.82;94.81;97841.64;1608903;87;21575;-65
2022/02/02 09:51:21;;;;;;;3.72;2.10;;;;;;;1.19;95.62;97847.93;1618902;87;21114;-64
2022/02/02 09:53:55;;;;;;;4.70;2.10;;;;;;;1.60;95.24;97850.56;1617983;87;22062;-65
2022/02/02 09:59:18;;;;;;;5.25;2.50;;;;;;;1.55;93.22;97867.03;1581631;88;21051;-65
2022/02/02 10:07:32;;;;;;;4.97;2.40;;;;;;;1.29;93.44;97890.39;1616611;87;21419;-66
2022/02/02 10:10:36;;;;;;;5.65;2.60;;;;;;;1.19;93.17;97894.20;1603851;87;21602;-67
2022/02/02 10:15:32;;;;;;;4.65;2.55;;;;;;;1.13;93.62;97897.02;1657459;84;21698;-66
2022/02/02 10:18:23;;;;;;;11.70;2.50;;;;;;;1.23;93.76;97906.89;1681267;84;21001;-66
2022/02/02 10:20:55;;;;;;;3.75;1.80;;;;;;;1.27;93.39;97903.30;1670844;83;21109;-66
2022/02/02 10:23:27;;;;;;;4.40;2.47;;;;;;;1.42;93.31;97908.27;1689667;84;20947;-64
2022/02/02 10:25:58;;;;;;;5.83;2.30;;;;;;;1.46;92.89;97908.56;1688147;84;20971;-66
2022/02/02 10:28:32;;;;;;;3.45;2.20;;;;;;;1.53;93.11;97903.55;1688635;84;21614;-65
2022/02/02 10:31:04;;;;;;;7.70;2.62;;;;;;;1.56;92.93;97904.70;1687375;84;21045;-66
2022/02/02 10:33:33;;;;;;;4.70;2.37;;;;;;;1.65;93.29;97905.23;1694396;83;21051;-66
2022/02/02 10:36:12;;;;;;;4.05;2.25;;;;;;;1.77;93.26;97909.91;1702214;82;20958;-66
2022/02/02 10:38:43;;;;;;;4.78;2.72;;;;;;;1.79;92.30;97915.80;1696132;82;20989;-66
2022/02/02 10:44:03;;;;;;;5.37;3.17;;;;;;;1.67;91.17;97926.60;1701162;82;21018;-65
2022/02/02 10:47:15;;;;;;;5.87;3.30;;;;;;;1.63;92.16;97930.21;1712776;82;21303;-65
2022/02/02 10:49:18;;;;;;;6.75;2.92;;;;;;;1.59;92.47;97926.91;1693615;82;20970;-72
2022/02/02 10:57:01;;;;;;;4.27;2.20;;;;;;;1.80;92.29;97936.80;1675501;83;21012;-62
2022/02/02 10:59:36;;;;;;;3.20;1.77;;;;;;;1.68;92.58;97950.14;1661692;83;20983;-64
2022/02/02 11:07:12;;;;;;;4.25;2.02;;;;;;;1.52;92.26;97966.19;1660639;83;21154;-64
2022/02/02 11:09:39;;;;;;;4.70;2.60;;;;;;;1.51;92.62;97962.38;1662905;83;21022;-62
2022/02/02 11:12:10;;;;;;;4.67;2.50;;;;;;;1.43;92.37;97970.41;1671077;83;21447;-64
2022/02/02 11:15:04;;;;;;;4.22;2.50;;;;;;;1.33;92.38;97985.78;1675051;83;21072;-63
2022/02/02 11:17:53;;;;;;;5.35;2.65;;;;;;;1.18;92.36;98003.08;1673241;83;21021;-64
2022/02/02 11:20:22;;;;;;;4.62;2.40;;;;;;;0.86;92.55;98005.06;1671633;83;21001;-66
2022/02/02 11:22:55;;;;;;;4.47;2.60;;;;;;;0.64;93.07;98008.41;1668244;83;21131;-66
2022/02/02 11:25:33;;;;;;;5.65;2.83;;;;;;;0.53;93.48;98019.91;1672953;83;21160;-64
2022/02/02 11:27:59;;;;;;;5.37;2.58;;;;;;;0.34;94.37;98027.41;1673871;83;21566;-62
2022/02/02 11:30:32;;;;;;;3.87;2.30;;;;;;;0.52;94.58;98034.48;1682035;83;21033;-65
2022/02/02 11:33:16;;;;;;;4.33;2.47;;;;;;;0.57;94.40;98028.75;1702244;82;21538;-64
2022/02/02 11:35:50;;;;;;;4.20;2.20;;;;;;;0.68;94.42;98058.38;1710971;82;20953;-63
2022/02/02 11:38:35;;;;;;;4.58;2.45;;;;;;;0.71;94.08;98050.13;1669567;83;21479;-63
2022/02/02 11:41:59;;;;;;;4.65;3.08;;;;;;;0.68;94.02;98058.38;1677003;83;20997;-62
2022/02/02 11:44:02;;;;;;;5.75;3.33;;;;;;;0.72;94.17;98076.64;1679407;82;21044;-63
2022/02/02 11:50:03;;;;;;;5.83;3.00;;;;;;;0.76;93.90;98083.38;1695539;82;20941;-62
2022/02/02 11:52:44;;;;;;;5.92;3.72;;;;;;;0.72;93.87;98110.87;1694224;82;21290;-63
2022/02/02 11:55:16;;;;;;;6.78;3.42;;;;;;;0.72;93.82;98104.45;1688926;82;21892;-62
2022/02/02 11:58:14;;;;;;;5.08;3.30;;;;;;;0.76;93.81;98116.77;1682130;83;21070;-64
2022/02/02 12:01:12;;;;;;;7.50;3.60;;;;;;;0.76;93.70;98127.05;1684061;83;20986;-63
2022/02/02 12:06:30;;;;;;;6.42;3.67;;;;;;;1.10;93.91;98148.14;1679198;83;21101;-63
2022/02/02 12:11:45;;;;;;;7.03;4.30;;;;;;;1.18;93.24;98155.59;1661739;84;20935;-62
2022/02/02 12:20:52;;;;;;;8.75;5.10;;;;;;;1.00;93.06;98173.75;1661009;84;21682;-64
2022/02/02 12:49:00;;;;;;;12.47;7.40;;;;;;;0.78;93.22;98222.88;1683848;82;21525;-63
2022/02/02 12:54:47;;;;;;;11.95;6.35;;;;;;;0.71;93.27;98232.52;1670478;83;20962;-63
2022/02/02 12:56:40;;;;;;;10.68;4.62;;;;;;;0.71;93.18;98237.66;1634051;85;21138;-62
2022/02/02 13:02:12;;;;;;;7.92;4.60;;;;;;;0.84;93.08;98254.80;1641035;85;21215;-63
2022/02/02 13:04:43;;;;;;;7.72;3.80;;;;;;;1.00;92.78;98266.27;1639390;85;21091;-62
2022/02/02 13:07:19;;;;;;;5.50;3.62;;;;;;;1.18;92.60;98275.59;1649257;85;21017;-63
2022/02/02 13:09:50;;;;;;;11.57;4.42;;;;;;;1.05;92.03;98281.11;1647315;85;21029;-63
2022/02/02 13:12:32;;;;;;;6.15;3.12;;;;;;;0.80;91.83;98304.61;1648465;85;21515;-63
2022/02/02 13:15:12;;;;;;;5.22;2.65;;;;;;;0.48;92.29;98314.13;1655256;84;21109;-62
2022/02/02 13:17:56;;;;;;;6.37;3.08;;;;;;;0.14;93.09;98327.91;1632766;85;21090;-63
2022/02/02 13:20:18;;;;;;;4.67;3.27;;;;;;;-0.07;93.80;98328.03;1634669;85;21018;-61
2022/02/02 13:22:51;;;;;;;4.25;2.62;;;;;;;-0.15;94.22;98338.10;1624087;86;20982;-62
2022/02/02 13:25:30;;;;;;;6.87;2.75;;;;;;;-0.33;95.10;98362.07;1633489;85;20970;-62
2022/02/02 13:27:59;;;;;;;4.35;2.20;;;;;;;-0.48;94.84;98357.30;1648812;85;21606;-62
2022/02/02 13:30:47;;;;;;;6.12;2.00;;;;;;;-0.53;95.24;98378.39;1645819;84;21061;-62
2022/02/02 13:33:17;;;;;;;7.47;2.83;;;;;;;-0.55;95.46;98383.98;1651806;84;21113;-62
2022/02/02 13:35:59;;;;;;;3.80;1.80;;;;;;;-0.53;95.78;98373.27;1649138;84;21667;-62
2022/02/02 13:38:34;;;;;;;3.50;2.05;;;;;;;-0.46;95.98;98383.76;1635993;85;21045;-61
2022/02/02 13:44:27;;;;;;;2.72;1.80;;;;;;;-0.32;95.67;98394.52;1636917;85;21511;-63
2022/02/02 14:04:49;;;;;;;4.83;3.05;;;;;;;-0.63;95.76;98475.61;1664385;84;20998;-63
2022/02/02 14:31:34;;;;;;;7.00;4.72;;;;;;;-0.72;95.91;98560.80;1524624;93;21687;-64
2022/02/02 14:33:59;;;;;;;9.08;5.22;;;;;;;-0.74;96.10;98576.64;1535470;92;21096;-64
2022/02/02 14:36:31;;;;;;;8.73;6.20;;;;;;;-0.76;96.14;98573.26;1534865;92;21108;-64
2022/02/02 14:39:39;;;;;;;11.80;5.92;;;;;;;-0.72;96.18;98577.47;1533997;92;21146;-64
2022/02/02 14:42:02;;;;;;;10.55;5.72;;;;;;;-0.69;96.44;98585.09;1618274;86;21202;-65
2022/02/02 14:44:32;;;;;;;8.05;5.10;;;;;;;-0.69;96.20;98582.52;1675201;84;21082;-64
2022/02/02 14:47:02;;;;;;;10.03;6.03;;;;;;;-0.71;96.30;98593.24;1678040;82;21123;-64
2022/02/02 14:50:10;;;;;;;8.38;4.97;;;;;;;-0.74;96.18;98603.55;1670608;84;21616;-65
2022/02/02 14:52:02;;;;;;;6.35;4.47;;;;;;;-0.79;96.49;98614.33;1649582;84;21542;-64
2022/02/02 15:27:18;;;;;;;20.20;11.57;;;;;;;-1.05;96.24;98684.44;1630318;86;21638;-64
2022/02/02 15:29:35;;;;;;;16.48;9.13;;;;;;;-1.07;96.26;98685.73;1629420;86;21182;-65
2022/02/02 15:31:57;;;;;;;13.98;7.22;;;;;;;-1.07;96.26;98693.86;1622474;87;21000;-64
2022/02/02 15:34:43;;;;;;;9.78;6.35;;;;;;;-1.09;96.38;98710.97;1624956;87;21155;-66
2022/02/02 15:37:21;;;;;;;15.68;7.20;;;;;;;-1.10;96.55;98722.09;1625877;87;22209;-64
2022/02/02 15:39:38;;;;;;;15.90;7.53;;;;;;;-1.12;96.53;98727.26;1619457;87;21119;-65
2022/02/02 15:45:03;;;;;;;12.93;6.85;;;;;;;-1.10;96.60;98737.47;1622730;87;21127;-64
2022/02/02 15:58:14;;;;;;;15.53;8.45;;;;;;;-1.17;96.65;98764.91;1687284;82;21060;-64
2022/02/02 16:03:44;;;;;;;17.67;7.40;;;;;;;-1.22;97.08;98779.05;1692115;82;21071;-64
2022/02/02 16:06:20;;;;;;;17.90;7.28;;;;;;;-1.24;96.79;98791.02;1681440;82;21146;-64
2022/02/02 16:08:48;;;;;;;14.03;7.05;;;;;;;-1.27;96.83;98796.19;1680019;82;21073;-64
2022/02/02 16:11:19;;;;;;;12.47;6.53;;;;;;;-1.29;96.73;98803.05;1697865;82;21044;-64
2022/02/02 16:13:54;;;;;;;12.58;5.90;;;;;;;-1.31;96.94;98802.24;1682633;82;21019;-64
2022/02/02 16:19:21;;;;;;;11.28;6.75;;;;;;;-1.35;96.80;98815.94;1692694;83;21825;-63
2022/02/02 16:37:58;;;;;;;13.53;6.03;;;;;;;-1.37;97.34;98853.55;1690519;82;21671;-65
2022/02/02 16:40:31;;;;;;;9.98;5.92;;;;;;;-1.42;97.37;98847.64;1689169;82;21051;-64
2022/02/02 16:43:13;;;;;;;10.78;5.75;;;;;;;-1.47;97.50;98857.92;1694036;84;21156;-65
2022/02/02 16:45:39;;;;;;;9.90;5.75;;;;;;;-1.50;97.47;98868.20;1691007;82;21161;-64
2022/02/02 16:48:09;;;;;;;14.30;6.10;;;;;;;-1.50;97.43;98877.61;1693225;82;21001;-65
2022/02/02 16:50:43;;;;;;;9.35;4.78;;;;;;;-1.51;97.36;98875.89;1690154;82;21642;-66
2022/02/02 17:31:02;;;;;;;9.78;5.33;;;;;;;-1.47;97.18;98956.94;1700306;84;20965;-64
2022/02/02 17:33:34;;;;;;;8.60;4.62;;;;;;;-1.48;97.05;98964.22;1705001;83;21014;-65
2022/02/02 17:38:50;;;;;;;12.95;4.70;;;;;;;-1.50;97.02;98973.18;1709255;83;21207;-65
2022/02/02 17:41:25;;;;;;;10.55;5.08;;;;;;;-1.51;96.94;98978.30;1724777;81;21546;-65
2022/02/02 18:18:53;;;;;;;9.40;4.87;;;;;;;-1.81;96.33;99049.41;1733461;82;21539;-65
2022/02/02 18:21:20;;;;;;;11.22;4.67;;;;;;;-1.81;96.29;99046.85;1730911;82;20951;-65
2022/02/02 18:23:55;;;;;;;7.78;4.90;;;;;;;-1.82;96.21;99051.53;1732689;82;21586;-66
2022/02/02 18:26:32;;;;;;;10.55;4.62;;;;;;;-1.83;96.18;99056.24;1728846;82;20967;-65
2022/02/02 18:29:05;;;;;;;7.47;3.92;;;;;;;-1.85;96.14;99047.72;1731659;82;21046;-64
2022/02/02 18:43:07;;;;;;;11.40;4.33;;;;;;;-1.88;96.02;99052.87;1594939;88;21119;-64
2022/02/02 18:53:08;;;;;;;11.88;7.20;;;;;;;-1.86;96.13;99071.63;1586076;89;21549;-65
2022/02/02 19:00:33;;;;;;;17.23;8.13;;;;;;;-1.83;96.08;99084.39;1577134;89;21207;-65
2022/02/02 19:05:29;;;;;;;10.82;5.90;;;;;;;-1.83;95.94;99104.87;1586626;88;21106;-65
2022/02/02 19:38:30;;;;;;;10.63;6.30;;;;;;;-1.86;96.05;99159.91;1742920;82;20972;-63
2022/02/02 19:52:15;;;;;;;12.53;6.65;;;;;;;-1.83;96.20;99157.33;1731782;81;21499;-65
2022/02/02 19:57:00;;;;;;;16.73;7.47;;;;;;;-1.89;96.12;99171.45;1678625;83;21053;-64
2022/02/02 20:02:43;;;;;;;16.23;7.97;;;;;;;-1.88;96.13;99181.66;1685899;83;21612;-64
2022/02/02 20:10:02;;;;;;;14.80;8.88;;;;;;;-1.87;95.98;99190.20;1702684;83;21620;-63
2022/02/02 20:12:47;;;;;;;20.25;9.25;;;;;;;-1.89;95.98;99193.20;1657717;85;22371;-63
2022/02/02 20:14:54;;;;;;;16.97;8.45;;;;;;;-1.89;96.03;99190.20;1674244;85;21072;-64
2022/02/02 20:17:23;;;;;;;19.93;8.03;;;;;;;-1.88;96.04;99191.05;1680235;83;21613;-63
2022/02/02 20:19:58;;;;;;;15.95;7.22;;;;;;;-1.87;96.05;99197.88;1696832;83;21494;-63
2022/02/02 20:22:23;;;;;;;13.53;7.60;;;;;;;-1.87;95.93;99204.28;1678410;84;21565;-63
2022/02/02 20:24:58;;;;;;;12.58;6.95;;;;;;;-1.88;95.95;99207.67;1684759;83;21545;-63
2022/02/02 20:27:21;;;;;;;11.85;6.55;;;;;;;-1.89;95.91;99211.11;1681138;83;21101;-64
2022/02/02 20:29:47;;;;;;;14.38;7.25;;;;;;;-1.91;95.90;99214.09;1682626;85;21572;-64
2022/02/02 20:32:14;;;;;;;14.90;6.85;;;;;;;-1.90;96.00;99206.86;1682234;85;21145;-64
2022/02/02 20:34:41;;;;;;;13.40;6.07;;;;;;;-1.87;96.03;99208.12;1686320;83;20981;-64
2022/02/02 20:37:08;;;;;;;16.50;6.90;;;;;;;-2.04;95.88;99190.30;1658861;85;21828;-64
2022/02/02 20:39:44;;;;;;;14.25;6.55;;;;;;;-1.99;95.89;99213.28;1664785;85;21683;-64
2022/02/02 20:42:09;;;;;;;13.98;6.85;;;;;;;-1.87;95.99;99233.70;1683062;83;21523;-64
2022/02/02 20:45:34;;;;;;;15.18;7.12;;;;;;;-1.84;96.19;99231.97;1714717;82;21031;-64
2022/02/02 21:01:40;;;;;;;11.68;6.40;;;;;;;-1.94;95.83;99234.58;1714576;82;20965;-63
2022/02/02 21:03:53;;;;;;;12.90;6.53;;;;;;;-1.94;95.91;99234.58;1704152;83;20954;-63
2022/02/02 21:11:51;;;;;;;9.75;5.15;;;;;;;-1.93;96.08;99246.50;1712859;82;20999;-64
2022/02/02 21:14:02;;;;;;;9.90;4.37;;;;;;;-1.88;96.13;99242.22;1715291;82;21498;-64
2022/02/02 21:16:31;;;;;;;7.83;4.58;;;;;;;-1.89;95.97;99243.09;1714691;83;21048;-64
2022/02/02 21:19:00;;;;;;;6.50;4.42;;;;;;;-1.88;95.99;99257.58;1713510;83;20954;-64
2022/02/02 21:21:51;;;;;;;8.38;4.60;;;;;;;-1.86;96.10;99256.71;1717308;82;21301;-63
2022/02/02 21:29:35;;;;;;;7.95;4.28;;;;;;;-1.87;95.84;99277.20;1714166;83;21739;-64
2022/02/02 21:32:04;;;;;;;7.03;4.22;;;;;;;-1.89;95.84;99272.52;1714174;83;21065;-64
2022/02/02 21:34:31;;;;;;;8.58;4.78;;;;;;;-1.87;95.93;99274.66;1721149;82;21079;-64
2022/02/02 21:37:03;;;;;;;8.68;4.28;;;;;;;-1.88;95.87;99280.61;1711382;83;28244;-64
2022/02/02 21:39:28;;;;;;;7.00;4.60;;;;;;;-1.86;96.00;99286.58;1694949;82;21012;-64
2022/02/02 21:41:56;;;;;;;8.58;4.72;;;;;;;-1.87;95.95;99292.56;1702527;82;21014;-64
2022/02/02 21:44:24;;;;;;;8.03;4.55;;;;;;;-1.86;96.05;99291.70;1688246;83;21597;-64
2022/02/02 21:46:53;;;;;;;9.83;4.90;;;;;;;-1.86;96.02;99289.14;1705084;82;21947;-64